Baruun-Urt, Mongolia
Current Conditions -  °F | °C
As of 2:00 PM on Sunday 21 Dec 2014 (Local Time) from ZMUB Reporting Station
Clear Clear  
Wind Chill:   Ceiling: Unl
Heat Index: 16°   Visibility: 6mi
Dew Point:   Wind: 4mph
Humidity: 58%   Direction: NA
Pressure: 30.15"   Gusts: NA
Location:  46.68°N, 113.28°E
Report Text: ZMUB 210600Z VRB02MPS CAVOK M09/M16 Q1021 NOSIG RMK QFE657.8 52
Loading
Personal Weather Stations






























Interactive Weather Map New forecast layout! Learn more

10-Day Weather Forecast

Advertisements
Track Severe Weather on mobile